createdAt,value
2018-07-01T00:00:01.896Z,14.22
2018-07-01T00:00:06.196Z,14.22
2018-07-01T00:00:10.761Z,14.21
2018-07-01T00:00:15.151Z,14.21
2018-07-01T00:00:20.124Z,14.21
2018-07-01T00:00:24.437Z,14.21
2018-07-01T00:00:28.747Z,14.2
2018-07-01T00:00:33.065Z,14.2
2018-07-01T00:00:37.173Z,14.2
2018-07-01T00:00:41.529Z,14.2
2018-07-01T00:00:45.525Z,14.2
2018-07-01T00:00:49.528Z,14.2
2018-07-01T00:00:53.842Z,14.2
2018-07-01T00:00:58.153Z,14.2
2018-07-01T00:01:02.470Z,14.2
2018-07-01T00:01:06.464Z,14.2
2018-07-01T00:01:10.669Z,14.2
2018-07-01T00:01:14.888Z,14.2
2018-07-01T00:01:19.254Z,14.2
2018-07-01T00:01:23.461Z,14.19
2018-07-01T00:01:27.666Z,14.2
2018-07-01T00:01:31.779Z,14.2
2018-07-01T00:01:35.988Z,14.2
2018-07-01T00:01:40.187Z,14.2
2018-07-01T00:01:44.284Z,14.19
2018-07-01T00:01:48.390Z,14.2
2018-07-01T00:01:52.604Z,14.2
2018-07-01T00:01:56.706Z,14.21
2018-07-01T00:02:01.013Z,14.2
2018-07-01T00:02:05.334Z,14.2
2018-07-01T00:02:09.448Z,14.2
2018-07-01T00:02:13.648Z,14.2
2018-07-01T00:02:17.968Z,14.2
2018-07-01T00:02:22.169Z,14.2
2018-07-01T00:02:26.269Z,14.19
2018-07-01T00:02:30.369Z,14.19
2018-07-01T00:02:34.580Z,14.21
2018-07-01T00:02:38.785Z,14.2
2018-07-01T00:02:42.997Z,14.2
2018-07-01T00:02:47.002Z,14.2
2018-07-01T00:02:51.311Z,14.19
2018-07-01T00:02:55.306Z,14.19
2018-07-01T00:02:59.631Z,14.2
2018-07-01T00:03:03.850Z,14.2
2018-07-01T00:03:08.054Z,14.2
2018-07-01T00:03:12.149Z,14.19
2018-07-01T00:03:16.358Z,14.19
2018-07-01T00:03:20.567Z,14.2
2018-07-01T00:03:24.889Z,14.2
2018-07-01T00:03:29.102Z,14.2
2018-07-01T00:03:33.198Z,14.19
2018-07-01T00:03:37.411Z,14.2
2018-07-01T00:03:41.625Z,14.19
2018-07-01T00:03:45.737Z,14.19
2018-07-01T00:03:49.944Z,14.2
2018-07-01T00:03:54.160Z,14.19
2018-07-01T00:03:58.262Z,14.19
2018-07-01T00:04:02.366Z,14.2
2018-07-01T00:04:06.580Z,14.19
2018-07-01T00:04:10.639Z,14.18
2018-07-01T00:04:14.981Z,14.19
2018-07-01T00:04:19.287Z,14.19
2018-07-01T00:04:23.498Z,14.2
2018-07-01T00:04:27.387Z,14.2
2018-07-01T00:04:31.705Z,14.19
2018-07-01T00:04:36.018Z,14.19
2018-07-01T00:04:40.224Z,14.19
2018-07-01T00:04:44.436Z,14.19
2018-07-01T00:04:48.538Z,14.19
2018-07-01T00:04:52.683Z,14.19
2018-07-01T00:04:56.891Z,14.18
2018-07-01T00:05:01.101Z,14.18
2018-07-01T00:05:05.200Z,14.19
2018-07-01T00:05:09.407Z,14.18
2018-07-01T00:05:13.612Z,14.19
2018-07-01T00:05:17.824Z,14.19
2018-07-01T00:05:22.025Z,14.19
2018-07-01T00:05:26.342Z,14.18
2018-07-01T00:05:30.660Z,14.18
2018-07-01T00:05:34.865Z,14.18
2018-07-01T00:05:39.073Z,14.18
2018-07-01T00:05:43.180Z,14.18
2018-07-01T00:05:47.396Z,14.18
2018-07-01T00:05:51.609Z,14.18
2018-07-01T00:05:55.813Z,14.17
2018-07-01T00:05:59.915Z,14.18
2018-07-01T00:06:04.062Z,14.18
2018-07-01T00:06:08.277Z,14.17
2018-07-01T00:06:12.600Z,14.18
2018-07-01T00:06:16.845Z,14.17
2018-07-01T00:06:21.166Z,14.18
2018-07-01T00:06:25.479Z,14.17
2018-07-01T00:06:29.800Z,14.17
2018-07-01T00:06:34.120Z,14.17
2018-07-01T00:06:38.434Z,14.16
2018-07-01T00:06:42.420Z,14.16
2018-07-01T00:06:46.411Z,14.16
2018-07-01T00:06:50.615Z,14.17
2018-07-01T00:06:54.720Z,14.16
2018-07-01T00:06:58.918Z,14.16
2018-07-01T00:07:03.129Z,14.16
2018-07-01T00:07:07.340Z,14.16
2018-07-01T00:07:11.549Z,14.16
2018-07-01T00:07:15.809Z,14.16
2018-07-01T00:07:20.120Z,14.15
2018-07-01T00:07:24.437Z,14.15
2018-07-01T00:07:28.688Z,14.15
2018-07-01T00:07:32.900Z,14.16
2018-07-01T00:07:37.006Z,14.15
2018-07-01T00:07:41.325Z,14.14
2018-07-01T00:07:45.424Z,14.15
2018-07-01T00:07:49.749Z,14.15
2018-07-01T00:07:53.862Z,14.15
2018-07-01T00:07:58.070Z,14.15
2018-07-01T00:08:02.172Z,14.15
2018-07-01T00:08:06.379Z,14.14
2018-07-01T00:08:10.477Z,14.14
2018-07-01T00:08:14.691Z,14.15
2018-07-01T00:08:19.006Z,14.14
2018-07-01T00:08:23.220Z,14.14
2018-07-01T00:08:27.426Z,14.15
2018-07-01T00:08:31.741Z,14.14
2018-07-01T00:08:36.047Z,14.14
2018-07-01T00:08:40.358Z,14.13
2018-07-01T00:08:44.673Z,14.14
2018-07-01T00:08:48.990Z,14.13
2018-07-01T00:08:53.187Z,14.13
2018-07-01T00:08:57.389Z,14.13
2018-07-01T00:09:01.596Z,14.13
2018-07-01T00:09:05.910Z,14.13
2018-07-01T00:09:10.008Z,14.13
2018-07-01T00:09:14.216Z,14.13
2018-07-01T00:09:18.423Z,14.12
2018-07-01T00:09:22.767Z,14.12
2018-07-01T00:09:26.864Z,14.12
2018-07-01T00:09:31.074Z,14.11
2018-07-01T00:09:35.334Z,14.12
2018-07-01T00:09:39.650Z,14.12
2018-07-01T00:09:43.861Z,14.11
2018-07-01T00:09:47.849Z,14.12
2018-07-01T00:09:52.165Z,14.12
2018-07-01T00:09:56.258Z,14.12
2018-07-01T00:10:00.463Z,14.11
2018-07-01T00:10:04.564Z,14.1
2018-07-01T00:10:08.661Z,14.11
2018-07-01T00:10:12.880Z,14.09
2018-07-01T00:10:16.988Z,14.11
2018-07-01T00:10:21.303Z,14.1
2018-07-01T00:10:25.398Z,14.1
2018-07-01T00:10:29.714Z,14.09
2018-07-01T00:10:33.921Z,14.09
2018-07-01T00:10:38.312Z,14.08
2018-07-01T00:10:42.840Z,14.09
2018-07-01T00:10:47.327Z,14.08
2018-07-01T00:10:52.213Z,14.09
2018-07-01T00:10:56.344Z,14.09
2018-07-01T00:11:00.551Z,14.08
2018-07-01T00:11:04.656Z,14.07
2018-07-01T00:11:08.982Z,14.08
2018-07-01T00:11:13.183Z,14.07
2018-07-01T00:11:17.281Z,14.07
2018-07-01T00:11:21.654Z,14.07
2018-07-01T00:11:25.758Z,14.06
2018-07-01T00:11:29.749Z,14.06
2018-07-01T00:11:33.861Z,14.06
2018-07-01T00:11:37.953Z,14.05
2018-07-01T00:11:42.051Z,14.05
2018-07-01T00:11:46.047Z,14.06
2018-07-01T00:11:50.254Z,14.05
2018-07-01T00:11:54.464Z,14.05
2018-07-01T00:11:58.665Z,14.05
2018-07-01T00:12:02.824Z,14.04
2018-07-01T00:12:07.135Z,14.04
2018-07-01T00:12:11.453Z,14.04
2018-07-01T00:12:15.666Z,14.04
2018-07-01T00:12:19.772Z,14.04
2018-07-01T00:12:23.988Z,14.04
2018-07-01T00:12:28.197Z,14.03
2018-07-01T00:12:32.580Z,14.03
2018-07-01T00:12:36.681Z,14.03
2018-07-01T00:12:41.007Z,14.04
2018-07-01T00:12:45.325Z,14.02
2018-07-01T00:12:49.530Z,14.01
2018-07-01T00:12:53.638Z,14.02
2018-07-01T00:12:57.954Z,14.02
2018-07-01T00:13:02.166Z,14.01
2018-07-01T00:13:06.368Z,14.02
2018-07-01T00:13:10.571Z,14.02
2018-07-01T00:13:14.780Z,14.01
2018-07-01T00:13:18.768Z,14.01
2018-07-01T00:13:22.968Z,14
2018-07-01T00:13:27.176Z,14
2018-07-01T00:13:31.387Z,14
2018-07-01T00:13:35.380Z,13.99
2018-07-01T00:13:39.368Z,13.98
2018-07-01T00:13:43.476Z,13.99
2018-07-01T00:13:47.686Z,13.98
2018-07-01T00:13:51.778Z,13.98
2018-07-01T00:13:55.985Z,13.99
2018-07-01T00:14:00.191Z,13.97
2018-07-01T00:14:04.396Z,13.97
2018-07-01T00:14:08.502Z,13.98
2018-07-01T00:14:12.702Z,13.97
2018-07-01T00:14:16.913Z,13.97
2018-07-01T00:14:21.011Z,13.97
2018-07-01T00:14:25.214Z,13.97
2018-07-01T00:14:29.210Z,13.96
2018-07-01T00:14:33.539Z,13.96
2018-07-01T00:14:37.861Z,13.95
2018-07-01T00:14:41.958Z,13.95
2018-07-01T00:14:46.162Z,13.95
2018-07-01T00:14:50.468Z,13.95
2018-07-01T00:14:54.775Z,13.94
2018-07-01T00:14:58.882Z,13.94
2018-07-01T00:15:02.985Z,13.94
2018-07-01T00:15:07.191Z,13.93
2018-07-01T00:15:11.294Z,13.93
2018-07-01T00:15:15.513Z,13.93
2018-07-01T00:15:19.828Z,13.92
2018-07-01T00:15:24.040Z,13.93
2018-07-01T00:15:28.242Z,13.93
2018-07-01T00:15:32.339Z,13.92
2018-07-01T00:15:36.329Z,13.92
2018-07-01T00:15:40.429Z,13.92
2018-07-01T00:15:44.637Z,13.92
2018-07-01T00:15:48.964Z,13.91
2018-07-01T00:15:53.173Z,13.92
2018-07-01T00:15:57.277Z,13.91
2018-07-01T00:16:01.589Z,13.91
2018-07-01T00:16:05.477Z,13.91
2018-07-01T00:16:09.574Z,13.92
2018-07-01T00:16:13.825Z,13.9
2018-07-01T00:16:18.095Z,13.9
2018-07-01T00:16:22.413Z,13.91
2018-07-01T00:16:26.511Z,13.9
2018-07-01T00:16:30.834Z,13.89
2018-07-01T00:16:34.934Z,13.89
2018-07-01T00:16:39.137Z,13.89
2018-07-01T00:16:43.243Z,13.89
2018-07-01T00:16:47.338Z,13.89
2018-07-01T00:16:51.652Z,13.89
2018-07-01T00:16:55.852Z,13.89
2018-07-01T00:17:00.166Z,13.89
2018-07-01T00:17:04.480Z,13.88
2018-07-01T00:17:08.688Z,13.88
2018-07-01T00:17:13.000Z,13.88
2018-07-01T00:17:17.320Z,13.89
2018-07-01T00:17:21.311Z,13.88
2018-07-01T00:17:25.407Z,13.88
2018-07-01T00:17:29.719Z,13.87
2018-07-01T00:17:33.821Z,13.88
2018-07-01T00:17:38.030Z,13.87
2018-07-01T00:17:42.248Z,13.87
2018-07-01T00:17:46.368Z,13.88
2018-07-01T00:17:50.576Z,13.87
2018-07-01T00:17:54.891Z,13.87
2018-07-01T00:17:59.209Z,13.87
2018-07-01T00:18:03.408Z,13.87
2018-07-01T00:18:07.508Z,13.87
2018-07-01T00:18:11.726Z,13.87
2018-07-01T00:18:15.941Z,13.86
2018-07-01T00:18:20.253Z,13.86
2018-07-01T00:18:24.470Z,13.86
2018-07-01T00:18:28.680Z,13.86
2018-07-01T00:18:32.998Z,13.86
2018-07-01T00:18:37.228Z,13.86
2018-07-01T00:18:41.535Z,13.86
2018-07-01T00:18:45.753Z,13.85
2018-07-01T00:18:49.850Z,13.86
2018-07-01T00:18:54.053Z,13.85
2018-07-01T00:18:58.367Z,13.85
2018-07-01T00:19:02.686Z,13.85
2018-07-01T00:19:06.785Z,13.83
2018-07-01T00:19:10.990Z,13.84
2018-07-01T00:19:15.087Z,13.84
2018-07-01T00:19:19.180Z,13.84
2018-07-01T00:19:23.492Z,13.84
2018-07-01T00:19:27.378Z,13.84
2018-07-01T00:19:31.484Z,13.84
2018-07-01T00:19:35.582Z,13.84
2018-07-01T00:19:39.698Z,13.84
2018-07-01T00:19:43.808Z,13.84
2018-07-01T00:19:48.081Z,13.83
2018-07-01T00:19:52.178Z,13.83
2018-07-01T00:19:56.274Z,13.83
2018-07-01T00:20:00.479Z,13.83
2018-07-01T00:20:04.482Z,13.83
2018-07-01T00:20:08.587Z,13.83
2018-07-01T00:20:12.854Z,13.82
2018-07-01T00:20:16.968Z,13.82
2018-07-01T00:20:21.285Z,13.82
2018-07-01T00:20:25.499Z,13.83
2018-07-01T00:20:29.707Z,13.82
2018-07-01T00:20:33.913Z,13.82
2018-07-01T00:20:38.225Z,13.82
2018-07-01T00:20:42.431Z,13.82
2018-07-01T00:20:46.315Z,13.81
2018-07-01T00:20:50.419Z,13.81
2018-07-01T00:20:54.748Z,13.82
2018-07-01T00:20:58.953Z,13.81
2018-07-01T00:21:03.052Z,13.8
2018-07-01T00:21:07.363Z,13.8
2018-07-01T00:21:11.678Z,13.8
2018-07-01T00:21:15.888Z,13.81
2018-07-01T00:21:20.096Z,13.8
2018-07-01T00:21:24.191Z,13.8
2018-07-01T00:21:28.283Z,13.8
2018-07-01T00:21:32.598Z,13.8
2018-07-01T00:21:36.801Z,13.79
2018-07-01T00:21:41.124Z,13.79
2018-07-01T00:21:45.328Z,13.79
2018-07-01T00:21:49.543Z,13.79
2018-07-01T00:21:53.755Z,13.79
2018-07-01T00:21:57.963Z,13.78
2018-07-01T00:22:02.235Z,13.79
2018-07-01T00:22:06.442Z,13.79
2018-07-01T00:22:10.776Z,13.78
2018-07-01T00:22:14.989Z,13.78
2018-07-01T00:22:19.091Z,13.79
2018-07-01T00:22:23.405Z,13.78
2018-07-01T00:22:27.501Z,13.78
2018-07-01T00:22:31.702Z,13.78
2018-07-01T00:22:35.916Z,13.77
2018-07-01T00:22:40.119Z,13.78
2018-07-01T00:22:44.451Z,13.78
2018-07-01T00:22:48.716Z,13.77
2018-07-01T00:22:53.032Z,13.77
2018-07-01T00:22:57.131Z,13.77
2018-07-01T00:23:01.442Z,13.76
2018-07-01T00:23:05.678Z,13.76
2018-07-01T00:23:09.789Z,13.77
2018-07-01T00:23:13.997Z,13.77
2018-07-01T00:23:18.311Z,13.77
2018-07-01T00:23:22.642Z,13.77
2018-07-01T00:23:26.748Z,13.77
2018-07-01T00:23:31.057Z,13.76
2018-07-01T00:23:35.433Z,13.76
2018-07-01T00:23:39.742Z,13.76
2018-07-01T00:23:43.943Z,13.76
2018-07-01T00:23:48.149Z,13.75
2018-07-01T00:23:52.472Z,13.76
2018-07-01T00:23:56.685Z,13.75
2018-07-01T00:24:00.885Z,13.75
2018-07-01T00:24:04.884Z,13.75
2018-07-01T00:24:08.990Z,13.75
2018-07-01T00:24:12.871Z,13.75
2018-07-01T00:24:17.190Z,13.75
2018-07-01T00:24:21.406Z,13.75
2018-07-01T00:24:25.510Z,13.74
2018-07-01T00:24:29.851Z,13.74
2018-07-01T00:24:34.164Z,13.74
2018-07-01T00:24:38.483Z,13.74
2018-07-01T00:24:42.697Z,13.74
2018-07-01T00:24:47.005Z,13.74
2018-07-01T00:24:51.209Z,13.74
2018-07-01T00:24:55.417Z,13.74
2018-07-01T00:24:59.727Z,13.73
2018-07-01T00:25:04.049Z,13.74
2018-07-01T00:25:08.152Z,13.74
2018-07-01T00:25:12.253Z,13.74
2018-07-01T00:25:16.567Z,13.74
2018-07-01T00:25:20.878Z,13.73
2018-07-01T00:25:25.201Z,13.73
2018-07-01T00:25:29.518Z,13.73
2018-07-01T00:25:33.828Z,13.73
2018-07-01T00:25:37.925Z,13.73
2018-07-01T00:25:42.282Z,13.73
2018-07-01T00:25:46.381Z,13.73
2018-07-01T00:25:50.693Z,13.74
2018-07-01T00:25:55.001Z,13.73
2018-07-01T00:25:59.313Z,13.73
2018-07-01T00:26:03.535Z,13.72
2018-07-01T00:26:07.644Z,13.73
2018-07-01T00:26:11.966Z,13.73
2018-07-01T00:26:16.176Z,13.72
2018-07-01T00:26:20.495Z,13.72
2018-07-01T00:26:24.493Z,13.72
2018-07-01T00:26:28.591Z,13.71
2018-07-01T00:26:32.903Z,13.72
2018-07-01T00:26:37.000Z,13.71
2018-07-01T00:26:41.100Z,13.71
2018-07-01T00:26:45.196Z,13.71
2018-07-01T00:26:49.297Z,13.71
2018-07-01T00:26:53.612Z,13.71
2018-07-01T00:26:57.821Z,13.71
2018-07-01T00:27:02.032Z,13.71
2018-07-01T00:27:06.146Z,13.7
2018-07-01T00:27:10.151Z,13.71
2018-07-01T00:27:14.250Z,13.71
2018-07-01T00:27:18.451Z,13.7
2018-07-01T00:27:22.658Z,13.7
2018-07-01T00:27:26.864Z,13.7
2018-07-01T00:27:31.068Z,13.7
2018-07-01T00:27:35.374Z,13.69
2018-07-01T00:27:39.577Z,13.69
2018-07-01T00:27:43.782Z,13.69
2018-07-01T00:27:47.878Z,13.69
2018-07-01T00:27:52.188Z,13.69
2018-07-01T00:27:56.495Z,13.69
2018-07-01T00:28:00.809Z,13.69
2018-07-01T00:28:04.910Z,13.69
2018-07-01T00:28:09.228Z,13.68
2018-07-01T00:28:13.546Z,13.69
2018-07-01T00:28:17.864Z,13.69
2018-07-01T00:28:22.191Z,13.69
2018-07-01T00:28:26.503Z,13.69
2018-07-01T00:28:30.717Z,13.69
2018-07-01T00:28:34.927Z,13.69
2018-07-01T00:28:39.141Z,13.69
2018-07-01T00:28:43.392Z,13.68
2018-07-01T00:28:47.593Z,13.68
2018-07-01T00:28:51.698Z,13.68
2018-07-01T00:28:55.798Z,13.68
2018-07-01T00:29:00.111Z,13.68
2018-07-01T00:29:04.106Z,13.68
2018-07-01T00:29:08.207Z,13.67
2018-07-01T00:29:12.412Z,13.68
2018-07-01T00:29:16.620Z,13.68
2018-07-01T00:29:20.826Z,13.68
2018-07-01T00:29:25.032Z,13.67
2018-07-01T00:29:29.035Z,13.68
2018-07-01T00:29:33.244Z,13.68
2018-07-01T00:29:37.449Z,13.67
2018-07-01T00:29:41.441Z,13.67
2018-07-01T00:30:17.751Z,13.66
2018-07-01T00:30:21.741Z,13.67
2018-07-01T00:30:25.943Z,13.66
2018-07-01T00:30:30.250Z,13.66
2018-07-01T00:30:34.564Z,13.67
2018-07-01T00:30:38.663Z,13.66
2018-07-01T00:30:42.980Z,13.66
2018-07-01T00:30:47.192Z,13.66
2018-07-01T00:30:51.403Z,13.65
2018-07-01T00:30:55.717Z,13.67
2018-07-01T00:30:59.919Z,13.66
2018-07-01T00:31:04.030Z,13.65
2018-07-01T00:31:08.122Z,13.66
2018-07-01T00:31:12.433Z,13.66
2018-07-01T00:31:16.746Z,13.65
2018-07-01T00:31:21.113Z,13.65
2018-07-01T00:31:25.319Z,13.65
2018-07-01T00:31:29.412Z,13.65
2018-07-01T00:31:33.508Z,13.65
2018-07-01T00:31:37.712Z,13.65
2018-07-01T00:31:41.810Z,13.65
2018-07-01T00:31:46.013Z,13.65
2018-07-01T00:31:50.218Z,13.65
2018-07-01T00:31:54.536Z,13.64
2018-07-01T00:31:58.749Z,13.64
2018-07-01T00:32:02.847Z,13.64
2018-07-01T00:32:06.950Z,13.64
2018-07-01T00:32:11.069Z,13.64
2018-07-01T00:32:15.217Z,13.64
2018-07-01T00:32:19.422Z,13.64
2018-07-01T00:32:23.632Z,13.63
2018-07-01T00:32:27.838Z,13.64
2018-07-01T00:32:32.151Z,13.63
2018-07-01T00:32:36.464Z,13.63
2018-07-01T00:32:40.673Z,13.62
2018-07-01T00:32:44.886Z,13.63
2018-07-01T00:32:48.989Z,13.63
2018-07-01T00:32:53.307Z,13.63
2018-07-01T00:32:57.616Z,13.63
2018-07-01T00:33:01.826Z,13.63
2018-07-01T00:33:06.031Z,13.62
2018-07-01T00:33:10.352Z,13.62
2018-07-01T00:33:14.361Z,13.62
2018-07-01T00:33:18.460Z,13.63
2018-07-01T00:33:22.668Z,13.62
2018-07-01T00:33:26.871Z,13.62
2018-07-01T00:33:31.083Z,13.62
2018-07-01T00:33:35.290Z,13.62
2018-07-01T00:33:39.501Z,13.63
2018-07-01T00:33:43.705Z,13.62
2018-07-01T00:33:48.011Z,13.61
2018-07-01T00:33:52.212Z,13.61
2018-07-01T00:33:56.542Z,13.61
2018-07-01T00:34:00.857Z,13.61
2018-07-01T00:34:05.052Z,13.61
2018-07-01T00:34:09.161Z,13.61
2018-07-01T00:34:13.371Z,13.61
2018-07-01T00:34:17.462Z,13.61
2018-07-01T00:34:21.667Z,13.6
2018-07-01T00:34:25.551Z,13.61
2018-07-01T00:34:29.648Z,13.61
2018-07-01T00:34:33.956Z,13.61
2018-07-01T00:34:38.265Z,13.6
2018-07-01T00:34:42.361Z,13.6
2018-07-01T00:34:46.564Z,13.6
2018-07-01T00:34:50.767Z,13.6
2018-07-01T00:34:54.972Z,13.6
2018-07-01T00:34:58.974Z,13.6
2018-07-01T00:35:03.073Z,13.61
2018-07-01T00:35:07.279Z,13.6
2018-07-01T00:35:11.488Z,13.6
2018-07-01T00:35:15.690Z,13.6
2018-07-01T00:35:19.998Z,13.6
2018-07-01T00:35:24.314Z,13.6
2018-07-01T00:35:28.434Z,13.6
2018-07-01T00:35:32.531Z,13.6
2018-07-01T00:35:36.843Z,13.59
2018-07-01T00:35:41.087Z,13.59
2018-07-01T00:35:45.399Z,13.6
2018-07-01T00:35:49.594Z,13.59
2018-07-01T00:35:53.797Z,13.59
2018-07-01T00:35:57.898Z,13.59
2018-07-01T00:36:02.109Z,13.59
2018-07-01T00:36:06.220Z,13.59
2018-07-01T00:36:10.428Z,13.59
2018-07-01T00:36:14.738Z,13.59
2018-07-01T00:36:18.949Z,13.58
2018-07-01T00:36:23.158Z,13.6
2018-07-01T00:36:27.252Z,13.59
2018-07-01T00:36:31.565Z,13.59
2018-07-01T00:36:35.772Z,13.59
2018-07-01T00:36:39.871Z,13.59
2018-07-01T00:36:44.077Z,13.59
2018-07-01T00:36:48.275Z,13.59
2018-07-01T00:36:52.582Z,13.59
2018-07-01T00:36:56.896Z,13.58
2018-07-01T00:37:01.101Z,13.59
2018-07-01T00:37:05.199Z,13.58
2018-07-01T00:37:09.297Z,13.58
2018-07-01T00:37:13.504Z,13.58
2018-07-01T00:37:17.706Z,13.58
2018-07-01T00:37:22.015Z,13.58
2018-07-01T00:37:26.216Z,13.58
2018-07-01T00:37:30.480Z,13.58
2018-07-01T00:37:34.578Z,13.57
2018-07-01T00:37:38.787Z,13.58
2018-07-01T00:37:42.880Z,13.57
2018-07-01T00:37:47.087Z,13.58
2018-07-01T00:37:51.393Z,13.57
2018-07-01T00:37:55.606Z,13.57
2018-07-01T00:37:59.805Z,13.57
2018-07-01T00:38:04.134Z,13.57
2018-07-01T00:38:08.350Z,13.56
2018-07-01T00:38:12.666Z,13.56
2018-07-01T00:38:16.928Z,13.57
2018-07-01T00:38:21.135Z,13.56
2018-07-01T00:38:25.454Z,13.56
2018-07-01T00:38:29.771Z,13.56
2018-07-01T00:38:33.869Z,13.55
2018-07-01T00:38:38.075Z,13.55
2018-07-01T00:38:42.282Z,13.55
2018-07-01T00:38:46.379Z,13.56
2018-07-01T00:38:50.585Z,13.56
2018-07-01T00:38:54.789Z,13.55
2018-07-01T00:38:58.989Z,13.55
2018-07-01T00:39:03.305Z,13.55
2018-07-01T00:39:07.514Z,13.55
2018-07-01T00:39:11.402Z,13.55
2018-07-01T00:39:15.726Z,13.55
2018-07-01T00:39:19.828Z,13.55
2018-07-01T00:39:23.817Z,13.55
2018-07-01T00:39:27.731Z,13.55
2018-07-01T00:39:31.829Z,13.55
2018-07-01T00:39:35.934Z,13.54
2018-07-01T00:39:40.283Z,13.54
2018-07-01T00:39:44.596Z,13.54
2018-07-01T00:39:48.797Z,13.54
2018-07-01T00:39:53.009Z,13.54
2018-07-01T00:39:57.208Z,13.55
2018-07-01T00:40:01.547Z,13.54
2018-07-01T00:40:05.541Z,13.55
2018-07-01T00:40:09.649Z,13.55
2018-07-01T00:40:13.748Z,13.55
2018-07-01T00:40:17.736Z,13.54
2018-07-01T00:40:22.054Z,13.54
2018-07-01T00:40:26.368Z,13.55
2018-07-01T00:40:30.584Z,13.55
2018-07-01T00:40:34.908Z,13.55
2018-07-01T00:40:39.006Z,13.55
2018-07-01T00:40:43.317Z,13.56
2018-07-01T00:40:47.420Z,13.54
2018-07-01T00:40:51.732Z,13.55
2018-07-01T00:40:55.934Z,13.54
2018-07-01T00:41:00.244Z,13.55
2018-07-01T00:41:04.231Z,13.55
2018-07-01T00:41:08.331Z,13.55
2018-07-01T00:41:12.532Z,13.55
2018-07-01T00:41:16.628Z,13.55
2018-07-01T00:41:20.725Z,13.55
2018-07-01T00:41:25.043Z,13.55
2018-07-01T00:41:29.248Z,13.55
2018-07-01T00:41:33.504Z,13.55
2018-07-01T00:41:37.813Z,13.56
2018-07-01T00:41:41.806Z,13.56
2018-07-01T00:41:46.118Z,13.55
2018-07-01T00:41:50.329Z,13.55
2018-07-01T00:41:54.429Z,13.55
2018-07-01T00:41:58.634Z,13.55
2018-07-01T00:42:02.733Z,13.55
2018-07-01T00:42:06.839Z,13.55
2018-07-01T00:42:11.045Z,13.55
2018-07-01T00:42:15.353Z,13.55
2018-07-01T00:42:19.566Z,13.55
2018-07-01T00:42:23.781Z,13.55
2018-07-01T00:42:27.989Z,13.55
2018-07-01T00:42:32.298Z,13.55
2018-07-01T00:42:36.616Z,13.55
2018-07-01T00:42:40.969Z,13.55
2018-07-01T00:42:45.060Z,13.55
2018-07-01T00:42:49.264Z,13.54
2018-07-01T00:42:53.577Z,13.55
2018-07-01T00:42:57.884Z,13.54
2018-07-01T00:43:02.091Z,13.54
2018-07-01T00:43:06.299Z,13.54
2018-07-01T00:43:10.506Z,13.55
2018-07-01T00:43:14.600Z,13.55
2018-07-01T00:43:18.810Z,13.55
2018-07-01T00:43:22.903Z,13.55
2018-07-01T00:43:27.219Z,13.53
2018-07-01T00:43:31.533Z,13.54
2018-07-01T00:43:35.629Z,13.54
2018-07-01T00:43:39.949Z,13.55
2018-07-01T00:43:44.042Z,13.54
2018-07-01T00:43:48.365Z,13.54
2018-07-01T00:43:52.576Z,13.54
2018-07-01T00:43:56.887Z,13.55
2018-07-01T00:44:00.984Z,13.54
2018-07-01T00:44:05.296Z,13.55
2018-07-01T00:44:09.605Z,13.54
2018-07-01T00:44:13.911Z,13.54
2018-07-01T00:44:18.008Z,13.54
2018-07-01T00:44:22.320Z,13.54
2018-07-01T00:44:26.528Z,13.54
2018-07-01T00:44:30.623Z,13.53
2018-07-01T00:44:34.724Z,13.53
2018-07-01T00:44:38.831Z,13.54
2018-07-01T00:44:43.042Z,13.54
2018-07-01T00:44:47.243Z,13.54
2018-07-01T00:44:51.552Z,13.54
2018-07-01T00:44:55.540Z,13.53
2018-07-01T00:44:59.845Z,13.53
2018-07-01T00:45:04.167Z,13.53
2018-07-01T00:45:08.379Z,13.53
2018-07-01T00:45:12.686Z,13.53
2018-07-01T00:45:17.002Z,13.53
2018-07-01T00:45:21.315Z,13.52
2018-07-01T00:45:25.516Z,13.52
2018-07-01T00:45:29.830Z,13.53
2018-07-01T00:45:34.154Z,13.52
2018-07-01T00:45:38.457Z,13.52
2018-07-01T00:45:42.766Z,13.52
2018-07-01T00:45:46.967Z,13.53
2018-07-01T00:45:51.070Z,13.52
2018-07-01T00:45:55.438Z,13.52
2018-07-01T00:45:59.750Z,13.51
2018-07-01T00:46:03.854Z,13.52
2018-07-01T00:46:08.165Z,13.52
2018-07-01T00:46:12.478Z,13.52
2018-07-01T00:46:16.471Z,13.51
2018-07-01T00:46:20.782Z,13.52
2018-07-01T00:46:24.778Z,13.52
2018-07-01T00:46:28.986Z,13.51
2018-07-01T00:46:33.190Z,13.51
2018-07-01T00:46:37.393Z,13.51
2018-07-01T00:46:41.501Z,13.52
2018-07-01T00:46:45.711Z,13.5
2018-07-01T00:46:50.017Z,13.51
2018-07-01T00:46:54.014Z,13.51
2018-07-01T00:46:58.326Z,13.51
2018-07-01T00:47:02.633Z,13.51
2018-07-01T00:47:06.844Z,13.52
2018-07-01T00:47:11.046Z,13.52
2018-07-01T00:47:15.261Z,13.51
2018-07-01T00:47:19.367Z,13.51
2018-07-01T00:47:23.570Z,13.52
2018-07-01T00:47:27.879Z,13.51
2018-07-01T00:47:32.198Z,13.5
2018-07-01T00:47:36.296Z,13.5
2018-07-01T00:47:40.296Z,13.51
2018-07-01T00:47:44.499Z,13.5
2018-07-01T00:47:48.699Z,13.5
2018-07-01T00:47:53.021Z,13.5
2018-07-01T00:47:57.382Z,13.5
2018-07-01T00:48:01.603Z,13.5
2018-07-01T00:48:05.705Z,13.5
2018-07-01T00:48:09.695Z,13.5
2018-07-01T00:48:13.910Z,13.51
2018-07-01T00:48:18.219Z,13.5
2018-07-01T00:48:22.422Z,13.49
2018-07-01T00:48:26.522Z,13.49
2018-07-01T00:48:30.837Z,13.49
2018-07-01T00:48:34.942Z,13.49
2018-07-01T00:48:39.252Z,13.48
2018-07-01T00:48:43.455Z,13.48
2018-07-01T00:48:47.661Z,13.49
2018-07-01T00:48:51.971Z,13.49
2018-07-01T00:48:56.277Z,13.48
2018-07-01T00:49:00.532Z,13.49
2018-07-01T00:49:04.847Z,13.48
2018-07-01T00:49:09.057Z,13.48
2018-07-01T00:49:13.259Z,13.48
2018-07-01T00:49:17.354Z,13.47
2018-07-01T00:49:21.455Z,13.47
2018-07-01T00:49:25.547Z,13.47
2018-07-01T00:49:29.752Z,13.47
2018-07-01T00:49:33.959Z,13.47
2018-07-01T00:49:38.267Z,13.46
2018-07-01T00:49:42.474Z,13.47
2018-07-01T00:49:46.578Z,13.46
2018-07-01T00:49:50.673Z,13.47
2018-07-01T00:49:54.773Z,13.47
2018-07-01T00:49:58.979Z,13.46
2018-07-01T00:50:03.091Z,13.46
2018-07-01T00:50:07.299Z,13.46
2018-07-01T00:50:11.511Z,13.46
2018-07-01T00:50:15.820Z,13.46
2018-07-01T00:50:19.812Z,13.46
2018-07-01T00:50:24.123Z,13.45
2018-07-01T00:50:28.345Z,13.46
2018-07-01T00:50:32.445Z,13.45
2018-07-01T00:50:36.543Z,13.45
2018-07-01T00:50:40.532Z,13.45
2018-07-01T00:50:44.851Z,13.45
2018-07-01T00:50:49.061Z,13.45
2018-07-01T00:50:53.370Z,13.45
2018-07-01T00:50:57.680Z,13.45
2018-07-01T00:51:01.994Z,13.43
2018-07-01T00:51:05.989Z,13.45
2018-07-01T00:51:10.294Z,13.44
2018-07-01T00:51:14.506Z,13.43
2018-07-01T00:51:18.716Z,13.44
2018-07-01T00:51:22.931Z,13.44
2018-07-01T00:51:27.130Z,13.43
2018-07-01T00:51:31.332Z,13.43
2018-07-01T00:51:35.432Z,13.43
2018-07-01T00:51:39.748Z,13.43
2018-07-01T00:51:43.851Z,13.42
2018-07-01T00:51:48.058Z,13.43
2018-07-01T00:51:52.404Z,13.43
2018-07-01T00:51:56.614Z,13.43
2018-07-01T00:52:00.827Z,13.42
2018-07-01T00:52:04.825Z,13.42
2018-07-01T00:52:08.818Z,13.41
2018-07-01T00:52:13.020Z,13.42
2018-07-01T00:52:17.339Z,13.41
2018-07-01T00:52:21.541Z,13.41
2018-07-01T00:52:25.742Z,13.42
2018-07-01T00:52:29.945Z,13.41
2018-07-01T00:52:34.049Z,13.41
2018-07-01T00:52:38.358Z,13.41
2018-07-01T00:52:42.607Z,13.41
2018-07-01T00:52:46.915Z,13.41
2018-07-01T00:52:51.017Z,13.41
2018-07-01T00:52:55.323Z,13.4
2018-07-01T00:52:59.633Z,13.41
2018-07-01T00:53:03.732Z,13.4
2018-07-01T00:53:07.826Z,13.4
2018-07-01T00:53:12.139Z,13.41
2018-07-01T00:53:16.359Z,13.4
2018-07-01T00:53:20.567Z,13.4
2018-07-01T00:53:24.559Z,13.4
2018-07-01T00:53:28.759Z,13.4
2018-07-01T00:53:33.099Z,13.39
2018-07-01T00:53:37.410Z,13.39
2018-07-01T00:53:41.617Z,13.39
2018-07-01T00:53:45.722Z,13.39
2018-07-01T00:53:49.935Z,13.39
2018-07-01T00:53:54.032Z,13.39
2018-07-01T00:53:58.344Z,13.39
2018-07-01T00:54:02.549Z,13.39
2018-07-01T00:54:06.749Z,13.39
2018-07-01T00:54:10.948Z,13.38
2018-07-01T00:54:15.042Z,13.39
2018-07-01T00:54:19.346Z,13.39
2018-07-01T00:54:23.443Z,13.39
2018-07-01T00:54:27.556Z,13.38
2018-07-01T00:54:31.547Z,13.38
2018-07-01T00:54:35.749Z,13.38
2018-07-01T00:54:39.953Z,13.38
2018-07-01T00:54:44.264Z,13.38
2018-07-01T00:54:48.369Z,13.38
2018-07-01T00:54:52.592Z,13.37